Time;durP1;ratioP1;P1;durP2;ratioP2;P2;SDS_P1;SDS_P2;PMS_P1;PMS_P2;Temp;Humidity;BMP_temperature;BMP_pressure;BME280_temperature;BME280_humidity;BME280_pressure;Samples;Min_cycle;Max_cycle;Signal;HPM_P1;HPM_P2
2022/10/08 00:01:26;;;;;;;;;8.25;6.25;;;;;28.12;100.00;101462.00;5101798;27;51184;-45
2022/10/08 00:04:11;;;;;;;;;9.00;5.00;;;;;28.14;100.00;101462.78;5086034;27;51135;-46
2022/10/08 00:06:56;;;;;;;;;8.75;6.75;;;;;28.14;100.00;101465.50;5098748;27;51206;-44
2022/10/08 00:09:40;;;;;;;;;7.75;6.00;;;;;28.14;100.00;101458.16;5101454;27;51153;-44
2022/10/08 00:12:25;;;;;;;;;10.00;6.00;;;;;28.17;100.00;101451.59;5100807;27;51150;-45
2022/10/08 00:15:10;;;;;;;;;8.75;7.00;;;;;28.18;100.00;101453.34;5100429;27;51070;-45
2022/10/08 00:17:55;;;;;;;;;11.75;9.75;;;;;28.19;100.00;101449.63;5099103;27;51162;-46
2022/10/08 00:20:40;;;;;;;;;11.00;7.25;;;;;28.19;100.00;101457.00;5101958;27;51201;-43
2022/10/08 00:23:25;;;;;;;;;11.00;7.25;;;;;28.15;100.00;101448.09;5101821;27;51141;-41
2022/10/08 00:26:10;;;;;;;;;11.00;8.25;;;;;28.22;100.00;101443.06;5096412;27;51094;-43
2022/10/08 00:28:56;;;;;;;;;7.00;7.00;;;;;28.23;100.00;101440.25;5094735;27;51536;-47
2022/10/08 00:31:43;;;;;;;;;11.00;9.00;;;;;28.22;100.00;101446.72;5100640;27;51058;-41
2022/10/08 00:34:28;;;;;;;;;8.00;6.00;;;;;28.24;100.00;101436.53;5085987;27;51371;-44
2022/10/08 00:37:16;;;;;;;;;12.75;8.75;;;;;28.24;100.00;101428.34;5093371;27;51135;-42
2022/10/08 00:40:01;;;;;;;;;12.50;7.00;;;;;28.22;100.00;101433.03;5101504;27;51126;-44
2022/10/08 00:42:46;;;;;;;;;12.50;9.00;;;;;28.25;100.00;101440.16;5100734;27;51557;-44
2022/10/08 00:45:30;;;;;;;;;9.25;7.25;;;;;28.28;100.00;101437.22;5094716;27;51540;-44
2022/10/08 00:48:24;;;;;;;;;13.75;8.75;;;;;28.32;100.00;101435.13;5096509;27;51271;-43
2022/10/08 00:51:09;;;;;;;;;9.50;7.00;;;;;28.37;100.00;101427.47;5100256;27;51186;-43
2022/10/08 00:53:54;;;;;;;;;9.50;7.25;;;;;28.37;100.00;101428.38;5100992;27;51034;-42
2022/10/08 00:56:40;;;;;;;;;9.00;6.50;;;;;28.38;100.00;101419.19;5088043;27;51202;-44
2022/10/08 00:59:25;;;;;;;;;9.75;6.25;;;;;28.39;100.00;101423.69;5094685;27;51335;-44
2022/10/08 01:02:11;;;;;;;;;10.75;7.00;;;;;28.38;100.00;101418.28;5100705;27;51125;-41
2022/10/08 01:04:56;;;;;;;;;9.50;6.25;;;;;28.37;100.00;101420.16;5092742;27;51177;-45
2022/10/08 01:07:51;;;;;;;;;6.25;6.00;;;;;28.37;100.00;101431.09;5099039;27;51564;-42
2022/10/08 01:10:53;;;;;;;;;8.00;5.75;;;;;28.36;100.00;101431.22;5084961;27;51211;-46
2022/10/08 01:13:53;;;;;;;;;7.50;6.00;;;;;28.34;100.00;101430.44;5097109;27;51107;-43
2022/10/08 01:17:06;;;;;;;;;6.00;5.50;;;;;28.34;100.00;101428.56;5096752;27;51114;-42
2022/10/08 01:20:00;;;;;;;;;8.25;5.50;;;;;28.36;100.00;101431.22;5084540;27;51094;-43
2022/10/08 01:23:03;;;;;;;;;10.50;5.00;;;;;28.38;100.00;101435.59;5100186;27;51183;-46
2022/10/08 01:25:57;;;;;;;;;3.75;2.50;;;;;28.38;100.00;101429.22;5098012;27;51358;-44
2022/10/08 01:28:42;;;;;;;;;5.00;5.00;;;;;28.38;100.00;101429.22;5099818;27;51038;-42
2022/10/08 01:31:30;;;;;;;;;9.00;5.00;;;;;28.38;100.00;101423.75;5100625;27;51161;-46
2022/10/08 01:34:23;;;;;;;;;6.25;4.25;;;;;28.38;100.00;101429.22;5087428;27;52085;-43
2022/10/08 01:37:13;;;;;;;;;6.25;4.00;;;;;28.37;100.00;101427.47;5094959;27;51085;-45
2022/10/08 01:40:01;;;;;;;;;5.00;5.00;;;;;28.35;100.00;101419.38;5084817;27;51083;-42
2022/10/08 01:42:47;;;;;;;;;9.00;5.00;;;;;28.29;100.00;101414.34;5081190;27;51147;-43
2022/10/08 01:45:36;;;;;;;;;5.75;5.75;;;;;28.33;100.00;101424.06;5099996;27;51318;-45
2022/10/08 01:48:26;;;;;;;;;10.00;6.75;;;;;28.34;100.00;101424.97;5098749;27;51124;-44
2022/10/08 01:51:16;;;;;;;;;10.00;6.75;;;;;28.34;100.00;101424.97;5099058;27;51430;-44
2022/10/08 01:54:02;;;;;;;;;11.25;8.25;;;;;28.33;100.00;101417.75;5087844;27;51257;-41
2022/10/08 01:56:48;;;;;;;;;8.75;6.25;;;;;28.32;100.00;101413.25;5084480;27;51094;-46
2022/10/08 01:59:46;;;;;;;;;11.00;9.50;;;;;28.30;100.00;101413.38;5080888;27;51123;-42
2022/10/08 02:02:31;;;;;;;;;12.00;10.00;;;;;28.30;100.00;101407.88;5081656;27;51511;-43
2022/10/08 02:05:17;;;;;;;;;10.25;9.75;;;;;28.30;100.00;101403.28;5099515;27;51128;-42
2022/10/08 02:08:03;;;;;;;;;12.75;9.75;;;;;28.28;100.00;101401.63;5085205;27;51166;-44
2022/10/08 02:10:48;;;;;;;;;12.50;9.00;;;;;28.28;100.00;101405.22;5083878;27;51410;-42
2022/10/08 02:13:33;;;;;;;;;14.50;9.50;;;;;28.27;100.00;101402.63;5098640;27;51106;-42
2022/10/08 02:16:27;;;;;;;;;11.75;10.00;;;;;28.24;100.00;101397.34;5099661;27;51087;-44
2022/10/08 02:19:35;;;;;;;;;15.00;9.25;;;;;28.21;100.00;101389.34;5078046;27;51239;-44
2022/10/08 02:22:24;;;;;;;;;8.50;8.25;;;;;28.19;100.00;101394.91;5099035;27;51413;-41
2022/10/08 02:25:19;;;;;;;;;9.75;7.00;;;;;28.13;100.00;101373.47;5098490;27;51428;-46
2022/10/08 02:28:23;;;;;;;;;11.25;9.25;;;;;28.16;100.00;101392.38;5098363;27;51239;-41
2022/10/08 02:31:34;;;;;;;;;10.75;8.50;;;;;28.13;100.00;101377.06;5082103;27;51221;-43
2022/10/08 02:34:24;;;;;;;;;11.50;8.25;;;;;28.11;100.00;101375.41;5086561;27;51743;-45
2022/10/08 02:37:15;;;;;;;;;13.00;8.00;;;;;28.07;100.00;101373.81;5081008;27;51108;-43
2022/10/08 02:40:07;;;;;;;;;9.75;6.25;;;;;28.10;100.00;101373.66;5073649;27;51083;-44
2022/10/08 02:43:00;;;;;;;;;11.50;9.75;;;;;28.09;100.00;101375.53;5091039;27;51303;-44
2022/10/08 02:46:09;;;;;;;;;11.25;8.00;;;;;28.06;100.00;101372.97;5098373;27;51435;-42
2022/10/08 02:49:00;;;;;;;;;12.25;6.25;;;;;28.05;100.00;101371.22;5097388;27;51155;-47
2022/10/08 02:51:48;;;;;;;;;13.50;9.00;;;;;28.02;100.00;101368.66;5098729;27;51142;-44
2022/10/08 02:54:37;;;;;;;;;11.00;8.50;;;;;28.00;100.00;101367.91;5074899;27;51150;-42
2022/10/08 02:57:28;;;;;;;;;11.25;10.75;;;;;27.98;100.00;101364.41;5086449;27;51182;-44
2022/10/08 03:00:13;;;;;;;;;13.50;9.00;;;;;27.94;100.00;101363.72;5079345;27;51119;-44
2022/10/08 03:03:12;;;;;;;;;14.50;13.00;;;;;27.93;100.00;101367.47;5098538;27;51165;-44
2022/10/08 03:06:02;;;;;;;;;12.75;10.50;;;;;27.91;100.00;101369.41;5089847;27;51121;-42
2022/10/08 03:08:48;;;;;;;;;15.75;13.25;;;;;27.92;100.00;101375.75;5095960;27;51198;-46
2022/10/08 03:11:33;;;;;;;;;11.50;11.50;;;;;27.90;100.00;101381.34;5084141;27;51085;-44
2022/10/08 03:14:19;;;;;;;;;19.50;13.00;;;;;27.86;100.00;101371.56;5102342;27;51125;-43
2022/10/08 03:17:05;;;;;;;;;16.00;13.50;;;;;27.86;100.00;101374.28;5083485;27;51102;-44
2022/10/08 03:19:50;;;;;;;;;16.25;12.00;;;;;27.81;100.00;101369.13;5101417;27;51533;-42
2022/10/08 03:22:35;;;;;;;;;16.25;11.25;;;;;27.80;100.00;101375.59;5101035;27;51044;-45
2022/10/08 03:25:19;;;;;;;;;14.75;12.25;;;;;27.80;100.00;101382.91;5095847;27;51159;-46
2022/10/08 03:28:04;;;;;;;;;14.50;13.50;;;;;27.79;100.00;101376.56;5100070;27;51583;-44
2022/10/08 03:30:48;;;;;;;;;17.50;14.75;;;;;27.76;100.00;101367.69;5101556;27;51154;-43
2022/10/08 03:33:34;;;;;;;;;17.50;11.50;;;;;27.81;100.00;101377.34;5102947;27;51408;-43
2022/10/08 03:36:19;;;;;;;;;17.00;12.50;;;;;27.82;100.00;101376.38;5099018;27;51043;-43
2022/10/08 03:39:05;;;;;;;;;14.75;11.50;;;;;27.82;100.00;101370.91;5096385;27;51150;-46
2022/10/08 03:41:49;;;;;;;;;16.75;11.50;;;;;27.82;100.00;101370.91;5100762;27;51456;-45
2022/10/08 03:44:33;;;;;;;;;17.25;13.50;;;;;27.82;100.00;101376.38;5097215;27;51017;-42
2022/10/08 03:47:18;;;;;;;;;14.25;11.00;;;;;27.82;100.00;101372.78;5095722;27;51023;-46
2022/10/08 03:50:04;;;;;;;;;15.25;12.25;;;;;27.80;100.00;101375.59;5094397;27;51088;-42
2022/10/08 03:52:48;;;;;;;;;13.25;11.00;;;;;27.80;100.00;101374.72;5102038;27;51071;-44
2022/10/08 03:55:34;;;;;;;;;18.75;16.50;;;;;27.80;100.00;101371.97;5093059;27;51182;-47
2022/10/08 03:58:19;;;;;;;;;18.00;16.00;;;;;27.80;100.00;101363.78;5086581;27;51517;-43
2022/10/08 04:01:12;;;;;;;;;14.75;14.25;;;;;27.80;100.00;101369.25;5091597;27;51126;-43
2022/10/08 04:03:56;;;;;;;;;18.50;16.75;;;;;27.77;100.00;101373.06;5094572;27;51245;-43
2022/10/08 04:06:41;;;;;;;;;18.50;12.75;;;;;27.77;100.00;101374.91;5100729;27;51432;-42
2022/10/08 04:09:26;;;;;;;;;14.25;12.75;;;;;27.77;100.00;101361.25;5094225;27;51134;-43
2022/10/08 04:12:10;;;;;;;;;15.75;14.50;;;;;27.78;100.00;101371.19;5098455;27;51221;-41
2022/10/08 04:14:55;;;;;;;;;16.00;13.00;;;;;27.75;100.00;101361.34;5101135;27;51035;-41
2022/10/08 04:17:40;;;;;;;;;15.75;14.50;;;;;27.75;100.00;101360.47;5100782;27;51466;-43
2022/10/08 04:20:25;;;;;;;;;14.00;12.75;;;;;27.74;100.00;101365.06;5100245;27;51335;-43
2022/10/08 04:23:10;;;;;;;;;19.50;11.75;;;;;27.71;100.00;101358.94;5101835;27;51565;-44
2022/10/08 04:25:55;;;;;;;;;16.00;13.25;;;;;27.71;100.00;101364.41;5086493;27;51208;-44
2022/10/08 04:28:43;;;;;;;;;15.50;13.00;;;;;27.69;100.00;101369.94;5095524;27;51154;-42
2022/10/08 04:31:27;;;;;;;;;16.00;13.75;;;;;27.70;100.00;101366.25;5097728;27;51520;-46
2022/10/08 04:34:12;;;;;;;;;13.75;12.75;;;;;27.69;100.00;101372.69;5097023;27;51075;-44
2022/10/08 04:36:57;;;;;;;;;13.75;13.00;;;;;27.69;100.00;101375.41;5097504;27;51162;-44
2022/10/08 04:39:42;;;;;;;;;18.75;15.25;;;;;27.66;100.00;101371.03;5096572;27;51346;-41
2022/10/08 04:42:26;;;;;;;;;16.50;14.75;;;;;27.63;100.00;101364.91;5097603;27;51553;-45
2022/10/08 04:45:11;;;;;;;;;23.50;17.00;;;;;27.61;100.00;101369.59;5095503;27;51057;-41
2022/10/08 04:47:55;;;;;;;;;21.25;19.75;;;;;27.58;100.00;101370.69;5093348;27;51732;-42
2022/10/08 04:50:40;;;;;;;;;21.75;19.00;;;;;27.56;100.00;101372.63;5097190;27;51654;-42
2022/10/08 04:53:25;;;;;;;;;17.00;15.50;;;;;27.55;100.00;101370.88;5100525;27;51184;-43
2022/10/08 04:56:13;;;;;;;;;20.50;16.50;;;;;27.56;100.00;101379.97;5096713;27;51194;-43
2022/10/08 04:58:59;;;;;;;;;18.50;18.00;;;;;27.53;100.00;101387.38;5088559;27;51468;-44
2022/10/08 05:01:44;;;;;;;;;18.75;14.75;;;;;27.51;100.00;101385.72;5095969;27;51237;-44
2022/10/08 05:04:28;;;;;;;;;19.25;17.50;;;;;27.51;100.00;101386.59;5097858;27;51215;-46
2022/10/08 05:07:12;;;;;;;;;21.00;18.25;;;;;27.52;100.00;101390.19;5096604;27;51561;-43
2022/10/08 05:09:57;;;;;;;;;17.25;16.50;;;;;27.53;100.00;101390.13;5096284;27;51136;-43
2022/10/08 05:12:41;;;;;;;;;20.75;19.50;;;;;27.52;100.00;101390.19;5093639;27;51563;-42
2022/10/08 05:15:26;;;;;;;;;16.75;15.50;;;;;27.54;100.00;101388.25;5093524;27;51034;-43
2022/10/08 05:18:11;;;;;;;;;16.00;16.00;;;;;27.53;100.00;101391.94;5095815;27;51147;-43
2022/10/08 05:20:55;;;;;;;;;21.00;18.50;;;;;27.53;100.00;101397.41;5091069;27;51103;-45
2022/10/08 05:23:43;;;;;;;;;17.25;16.50;;;;;27.53;100.00;101394.69;5097916;27;51492;-43
2022/10/08 05:26:31;;;;;;;;;39.25;29.00;;;;;27.52;100.00;101393.81;5099783;27;51074;-42
2022/10/08 05:29:16;;;;;;;;;30.50;24.75;;;;;27.51;100.00;101399.41;5096004;27;51102;-44
2022/10/08 05:32:00;;;;;;;;;28.00;19.75;;;;;27.50;100.00;101403.09;5099029;27;51370;-44
2022/10/08 05:34:45;;;;;;;;;29.50;21.00;;;;;27.50;100.00;101409.44;5095912;27;51232;-45
2022/10/08 05:37:30;;;;;;;;;26.75;23.00;;;;;27.50;100.00;101408.56;5089296;27;51417;-43
2022/10/08 05:40:15;;;;;;;;;27.75;23.25;;;;;27.49;100.00;101404.94;5097454;27;51066;-43
2022/10/08 05:42:59;;;;;;;;;22.75;21.25;;;;;27.50;100.00;101411.31;5095716;27;51232;-44
2022/10/08 05:45:51;;;;;;;;;21.50;18.00;;;;;27.51;100.00;101422.13;5091856;27;51412;-41
2022/10/08 05:48:35;;;;;;;;;22.00;21.75;;;;;27.51;100.00;101429.47;5089015;27;51549;-46
2022/10/08 05:51:20;;;;;;;;;24.25;20.25;;;;;27.50;100.00;101430.44;5099603;27;51105;-44
2022/10/08 05:54:04;;;;;;;;;23.75;19.25;;;;;27.49;100.00;101445.94;5081764;27;51192;-43
2022/10/08 05:56:49;;;;;;;;;26.00;23.25;;;;;27.52;100.00;101450.31;5088760;27;51537;-43
2022/10/08 05:59:33;;;;;;;;;26.00;24.75;;;;;27.53;100.00;101452.06;5089939;27;51381;-43
2022/10/08 06:02:18;;;;;;;;;27.00;24.25;;;;;27.57;100.00;101453.66;5094011;27;51194;-42
2022/10/08 06:05:04;;;;;;;;;27.75;26.00;;;;;27.60;100.00;101452.56;5089328;27;51126;-42
2022/10/08 06:07:48;;;;;;;;;28.00;23.50;;;;;27.63;100.00;101463.31;5093138;27;51112;-43
2022/10/08 06:10:33;;;;;;;;;37.50;27.75;;;;;27.64;100.00;101465.94;5094160;27;52467;-43
2022/10/08 06:13:19;;;;;;;;;29.75;24.00;;;;;27.67;100.00;101479.41;5094802;27;51507;-44
2022/10/08 06:16:09;;;;;;;;;31.00;24.25;;;;;27.73;100.00;101485.44;5095146;27;51114;-44
2022/10/08 06:18:54;;;;;;;;;35.50;30.75;;;;;27.77;100.00;101476.09;5093024;27;51169;-42
2022/10/08 06:21:38;;;;;;;;;38.25;31.00;;;;;27.79;100.00;101482.34;5098199;27;51461;-44
2022/10/08 06:24:23;;;;;;;;;27.25;24.25;;;;;27.80;100.00;101474.03;5096735;27;51190;-41
2022/10/08 06:27:07;;;;;;;;;41.75;32.25;;;;;27.86;100.00;101489.16;5092575;27;51630;-44
2022/10/08 06:29:52;;;;;;;;;31.75;28.75;;;;;27.92;100.00;101487.88;5097617;27;51090;-43
2022/10/08 06:32:36;;;;;;;;;25.50;21.50;;;;;27.93;100.00;101492.38;5099047;27;51567;-44
2022/10/08 06:35:20;;;;;;;;;28.50;22.25;;;;;27.95;100.00;101496.75;5082652;27;51111;-45
2022/10/08 06:38:05;;;;;;;;;31.25;25.75;;;;;28.02;100.00;101501.84;5096542;27;50980;-46
2022/10/08 06:40:49;;;;;;;;;28.00;20.75;;;;;27.94;100.00;101486.78;5101416;27;51256;-41
2022/10/08 06:43:34;;;;;;;;;26.25;22.50;;;;;28.12;100.00;101506.63;5102697;27;51096;-45
2022/10/08 06:46:19;;;;;;;;;29.50;24.25;;;;;28.14;100.00;101506.53;5093124;27;51165;-42
2022/10/08 06:49:05;;;;;;;;;30.75;27.00;;;;;28.25;100.00;101514.91;5099693;27;51108;-44
2022/10/08 06:51:49;;;;;;;;;27.50;24.50;;;;;28.30;100.00;101514.63;5099774;27;51069;-43
2022/10/08 06:54:33;;;;;;;;;37.50;30.75;;;;;28.39;100.00;101524.03;5089792;27;51385;-47
2022/10/08 06:57:18;;;;;;;;;30.75;27.75;;;;;28.48;100.00;101517.94;5098623;27;51176;-44
2022/10/08 07:00:02;;;;;;;;;29.75;27.25;;;;;28.61;100.00;101528.97;5100991;27;51155;-43
2022/10/08 07:02:47;;;;;;;;;36.00;30.50;;;;;28.71;100.00;101529.22;5093846;27;51557;-43
2022/10/08 07:05:32;;;;;;;;;35.75;31.50;;;;;28.82;100.00;101543.06;5098402;27;51150;-43
2022/10/08 07:08:16;;;;;;;;;40.00;30.75;;;;;28.99;100.00;101543.78;5099294;27;51265;-44
2022/10/08 07:11:09;;;;;;;;;43.50;35.00;;;;;29.17;100.00;101550.72;5091317;27;51098;-42
2022/10/08 07:13:55;;;;;;;;;48.50;37.25;;;;;29.38;100.00;101548.34;5094432;27;51181;-39
2022/10/08 07:16:40;;;;;;;;;43.00;35.25;;;;;29.52;100.00;101549.25;5099181;27;51144;-39
2022/10/08 07:19:24;;;;;;;;;41.50;33.25;;;;;29.68;100.00;101549.03;5102966;27;51162;-38
2022/10/08 07:22:08;;;;;;;;;31.50;29.00;;;;;29.82;100.00;101554.41;5102443;27;51127;-39
2022/10/08 07:24:53;;;;;;;;;39.50;33.50;;;;;29.95;100.00;101550.75;5101140;27;51096;-39
2022/10/08 07:27:37;;;;;;;;;44.75;35.50;;;;;30.05;100.00;101561.94;5102873;27;51548;-38
2022/10/08 07:30:22;;;;;;;;;40.75;32.50;;;;;30.13;100.00;101565.91;5101287;27;51461;-38
2022/10/08 07:33:07;;;;;;;;;44.25;31.25;;;;;30.20;100.00;101570.91;5095896;27;51193;-39
2022/10/08 07:35:51;;;;;;;;;45.25;34.75;;;;;30.26;100.00;101575.97;5099302;27;51656;-39
2022/10/08 07:38:35;;;;;;;;;33.00;29.50;;;;;30.30;100.00;101572.88;5096354;27;51128;-39
2022/10/08 07:41:21;;;;;;;;;27.00;23.00;;;;;30.31;100.00;101568.25;5102327;27;51149;-39
2022/10/08 07:44:06;;;;;;;;;29.00;24.00;;;;;30.29;100.00;101565.63;5097801;27;51064;-38
2022/10/08 07:46:52;;;;;;;;;37.75;27.50;;;;;30.35;100.00;101568.91;5102069;27;51110;-39
2022/10/08 07:49:36;;;;;;;;;33.75;28.50;;;;;30.39;100.00;101568.56;5102358;27;51013;-38
2022/10/08 07:52:21;;;;;;;;;31.00;24.75;;;;;30.45;100.00;101569.97;5095296;27;51869;-38
2022/10/08 07:55:06;;;;;;;;;33.00;29.00;;;;;30.46;100.00;101571.72;5102359;27;51082;-38
2022/10/08 07:57:51;;;;;;;;;28.00;25.00;;;;;30.50;100.00;101580.59;5087791;27;51109;-38
2022/10/08 08:00:38;;;;;;;;;40.75;30.25;;;;;30.53;100.00;101584.00;5090940;27;51868;-38
2022/10/08 08:03:24;;;;;;;;;39.75;32.00;;;;;30.56;100.00;101578.31;5093240;27;51487;-39
2022/10/08 08:06:14;;;;;;;;;37.25;31.50;;;;;30.59;100.00;101594.56;5092421;27;51960;-38
2022/10/08 08:09:00;;;;;;;;;39.25;34.00;;;;;30.61;100.00;101594.44;5101217;27;51135;-38
2022/10/08 08:11:45;;;;;;;;;39.00;30.25;;;;;30.66;100.00;101578.50;5098307;27;50998;-38
2022/10/08 08:14:29;;;;;;;;;33.75;31.00;;;;;30.65;100.00;101592.31;5101958;27;51158;-45
2022/10/08 08:17:14;;;;;;;;;36.75;30.00;;;;;30.65;100.00;101584.97;5095055;27;51597;-39
2022/10/08 08:19:58;;;;;;;;;42.50;32.75;;;;;30.63;100.00;101597.94;5101331;27;51265;-39
2022/10/08 08:22:43;;;;;;;;;38.25;32.00;;;;;30.63;100.00;101594.34;5100619;27;51169;-39
2022/10/08 08:25:28;;;;;;;;;33.50;28.75;;;;;30.58;100.00;101601.03;5100083;27;51117;-39
2022/10/08 08:28:13;;;;;;;;;29.00;25.25;;;;;30.58;100.00;101616.66;5090848;27;51179;-39
2022/10/08 08:31:15;;;;;;;;;43.25;34.75;;;;;30.64;100.00;101616.19;5093368;27;51193;-38
2022/10/08 08:34:06;;;;;;;;;38.50;32.00;;;;;30.66;100.00;101627.94;5092316;27;51198;-41
2022/10/08 08:36:54;;;;;;;;;31.25;27.50;;;;;30.71;100.00;101631.19;5095304;27;51290;-39
2022/10/08 08:39:39;;;;;;;;;31.50;27.25;;;;;30.71;100.00;101630.34;5101341;27;51201;-39
2022/10/08 08:42:33;;;;;;;;;34.00;28.00;;;;;30.68;100.00;101656.16;5097080;27;51449;-39
2022/10/08 08:45:25;;;;;;;;;38.75;33.50;;;;;30.72;100.00;101660.44;5095750;27;51208;-39
2022/10/08 08:48:39;;;;;;;;;43.25;31.25;;;;;30.84;100.00;101653.16;5085703;27;51019;-39
2022/10/08 08:51:25;;;;;;;;;36.00;30.25;;;;;30.93;100.00;101651.56;5074690;27;51439;-39
2022/10/08 08:54:09;;;;;;;;;35.50;25.75;;;;;30.89;100.00;101650.91;5091518;27;51261;-39
2022/10/08 08:56:54;;;;;;;;;31.00;28.50;;;;;30.99;100.00;101655.69;5089960;27;51648;-40
2022/10/08 08:59:42;;;;;;;;;38.75;31.75;;;;;31.07;100.00;101653.25;5088357;27;51139;-40
2022/10/08 09:02:44;;;;;;;;;37.00;32.00;;;;;31.04;100.00;101654.34;5083446;27;51114;-39
2022/10/08 09:05:32;;;;;;;;;50.50;38.00;;;;;31.08;100.00;101657.75;5099838;27;51144;-39
2022/10/08 09:08:25;;;;;;;;;37.75;33.00;;;;;31.16;100.00;101663.59;5094480;27;51096;-40
2022/10/08 09:11:14;;;;;;;;;30.50;26.25;;;;;31.22;100.00;101654.84;5078990;27;51209;-40
2022/10/08 09:14:25;;;;;;;;;35.00;30.25;;;;;31.21;100.00;101649.50;5092454;27;51249;-39
2022/10/08 09:17:16;;;;;;;;;30.25;27.25;;;;;31.15;100.00;101650.84;5091404;27;51485;-39
2022/10/08 09:20:00;;;;;;;;;34.75;31.00;;;;;31.17;100.00;101646.06;5098855;27;51164;-38
2022/10/08 09:22:45;;;;;;;;;32.50;27.00;;;;;31.29;100.00;101641.50;5099636;27;51483;-38
2022/10/08 09:25:32;;;;;;;;;26.25;25.75;;;;;31.45;100.00;101637.53;5097097;27;51357;-39
2022/10/08 09:28:37;;;;;;;;;30.00;25.00;;;;;31.73;100.00;101638.16;5097235;27;51103;-39
2022/10/08 09:31:35;;;;;;;;;29.25;28.00;;;;;32.04;100.00;101635.69;5097794;27;51119;-38
2022/10/08 09:34:20;;;;;;;;;35.50;27.75;;;;;32.21;100.00;101643.44;5089678;27;51073;-39
2022/10/08 09:37:18;;;;;;;;;28.75;26.00;;;;;32.50;100.00;101631.91;5099360;27;51136;-38
2022/10/08 09:40:12;;;;;;;;;29.25;23.25;;;;;32.79;100.00;101620.38;5084343;27;51149;-39
2022/10/08 09:43:12;;;;;;;;;25.00;18.75;;;;;33.00;100.00;101614.06;5098714;27;51110;-39
2022/10/08 09:45:57;;;;;;;;;25.50;21.00;;;;;33.30;100.00;101609.63;5094912;27;51157;-38
2022/10/08 09:48:44;;;;;;;;;30.75;26.00;;;;;33.59;100.00;101606.22;5092724;27;51644;-38
2022/10/08 09:51:29;;;;;;;;;42.25;33.25;;;;;33.82;100.00;101596.78;5092390;27;51222;-40
2022/10/08 09:54:28;;;;;;;;;33.50;21.75;;;;;34.11;100.00;101609.00;5097524;27;51508;-39
2022/10/08 09:57:19;;;;;;;;;23.50;21.75;;;;;34.28;100.00;101599.19;5079223;27;51215;-40
2022/10/08 10:00:05;;;;;;;;;23.25;20.75;;;;;34.44;100.00;101601.44;5087184;27;51075;-39
2022/10/08 10:02:53;;;;;;;;;24.00;16.50;;;;;34.65;100.00;101587.50;5081986;27;51081;-38
2022/10/08 10:05:37;;;;;;;;;21.50;18.75;;;;;34.69;100.00;101577.03;5099407;27;51172;-39
2022/10/08 10:08:45;;;;;;;;;26.25;24.00;;;;;34.83;100.00;101584.91;5099241;27;51449;-39
2022/10/08 10:11:53;;;;;;;;;23.25;20.50;;;;;34.87;100.00;101583.56;5098195;27;51154;-39
2022/10/08 10:14:45;;;;;;;;;23.00;18.50;;;;;34.80;100.00;101564.97;5096199;27;51133;-39
2022/10/08 10:17:36;;;;;;;;;20.00;19.00;;;;;34.69;100.00;101561.34;5098068;27;51057;-38
2022/10/08 10:20:28;;;;;;;;;20.50;16.00;;;;;34.70;100.00;101563.09;5076451;27;51186;-40
2022/10/08 10:23:26;;;;;;;;;21.50;16.75;;;;;34.79;100.00;101557.69;5083529;27;51237;-40
2022/10/08 10:26:23;;;;;;;;;22.50;19.25;;;;;34.79;100.00;101549.41;5083669;27;51462;-39
2022/10/08 10:29:18;;;;;;;;;23.75;22.25;;;;;34.72;100.00;101538.91;5081297;27;51250;-39
2022/10/08 10:32:07;;;;;;;;;20.00;18.00;;;;;34.63;100.00;101525.09;5098727;27;51075;-39
2022/10/08 10:35:00;;;;;;;;;25.25;20.75;;;;;34.55;100.00;101515.63;5082988;27;51421;-39
2022/10/08 10:38:08;;;;;;;;;23.75;23.75;;;;;34.49;100.00;101504.31;5082972;27;51279;-39
2022/10/08 10:41:30;;;;;;;;;29.25;22.25;;;;;34.33;100.00;101499.31;5098471;27;51219;-38
2022/10/08 10:44:47;;;;;;;;;26.25;19.25;;;;;34.17;100.00;101495.22;5091752;27;51537;-39
2022/10/08 10:47:32;;;;;;;;;25.25;21.25;;;;;34.18;100.00;101501.63;5081920;27;51071;-39
2022/10/08 10:50:25;;;;;;;;;20.50;20.25;;;;;34.16;100.00;101493.47;5098423;27;51272;-40
2022/10/08 10:53:19;;;;;;;;;24.25;20.50;;;;;34.16;100.00;101487.94;5092613;27;51509;-39
2022/10/08 10:56:14;;;;;;;;;18.75;16.25;;;;;34.06;100.00;101470.47;5082689;27;51342;-39
2022/10/08 10:59:20;;;;;;;;;17.25;15.50;;;;;33.81;100.00;101479.09;5091466;27;51116;-39
2022/10/08 11:02:23;;;;;;;;;17.25;16.50;;;;;33.56;100.00;101480.47;5095389;27;51145;-38
2022/10/08 11:05:23;;;;;;;;;20.50;16.25;;;;;33.42;100.00;101481.72;5095282;27;51543;-40
2022/10/08 11:08:30;;;;;;;;;18.25;16.75;;;;;33.25;100.00;101483.19;5083420;27;51405;-38
2022/10/08 11:11:51;;;;;;;;;17.00;17.00;;;;;33.10;100.00;101473.50;5095121;27;51293;-39
2022/10/08 11:15:13;;;;;;;;;22.25;18.00;;;;;32.98;100.00;101470.81;5086200;27;51366;-39
2022/10/08 11:18:13;;;;;;;;;16.50;14.75;;;;;33.03;100.00;101454.75;5099571;27;51254;-39
2022/10/08 11:20:58;;;;;;;;;13.25;13.25;;;;;33.01;100.00;101458.66;5101144;27;51258;-38
2022/10/08 11:24:21;;;;;;;;;12.75;12.75;;;;;32.94;100.00;101458.34;5093925;27;51072;-40
2022/10/08 11:27:24;;;;;;;;;12.00;12.00;;;;;32.82;100.00;101453.91;5085028;27;51066;-38
2022/10/08 11:30:13;;;;;;;;;16.00;16.00;;;;;32.75;100.00;101454.38;5102462;27;51209;-39
2022/10/08 11:32:58;;;;;;;;;17.25;12.75;;;;;32.74;100.00;101455.41;5093229;27;51091;-38
2022/10/08 11:36:11;;;;;;;;;18.50;17.25;;;;;32.68;100.00;101446.81;5087034;27;51151;-40
2022/10/08 11:39:14;;;;;;;;;17.25;14.00;;;;;32.60;100.00;101437.31;5071048;27;51135;-39
2022/10/08 11:42:22;;;;;;;;;16.75;13.00;;;;;32.38;100.00;101430.03;5102062;27;51100;-39
2022/10/08 11:45:23;;;;;;;;;13.50;13.50;;;;;32.41;100.00;101429.78;5100560;27;51132;-39
2022/10/08 11:48:33;;;;;;;;;9.50;8.50;;;;;32.38;100.00;101418.16;5102489;27;51374;-38
2022/10/08 11:51:20;;;;;;;;;17.50;13.50;;;;;32.35;100.00;101402.75;5101849;27;51142;-39
2022/10/08 11:54:08;;;;;;;;;16.25;12.00;;;;;32.31;100.00;101393.03;5094430;27;51194;-39
2022/10/08 11:57:11;;;;;;;;;13.25;12.25;;;;;32.30;100.00;101383.88;5090212;27;51165;-39
2022/10/08 12:00:03;;;;;;;;;17.25;15.25;;;;;32.37;100.00;101370.44;5088751;27;51696;-40
2022/10/08 12:02:51;;;;;;;;;21.00;18.75;;;;;32.50;100.00;101367.50;5085829;27;51193;-39
2022/10/08 12:05:45;;;;;;;;;18.75;17.75;;;;;32.69;100.00;101360.38;5100469;27;51158;-39
2022/10/08 12:08:51;;;;;;;;;14.75;13.50;;;;;32.78;100.00;101348.53;5090867;27;51306;-40
2022/10/08 12:11:36;;;;;;;;;16.00;13.75;;;;;32.79;100.00;101342.06;5089271;27;51143;-39
2022/10/08 12:14:21;;;;;;;;;15.75;15.50;;;;;32.75;100.00;101340.53;5098421;27;51477;-40
2022/10/08 12:17:07;;;;;;;;;18.75;15.00;;;;;32.66;100.00;101330.34;5100781;27;51224;-40
2022/10/08 12:20:17;;;;;;;;;18.25;15.75;;;;;32.72;100.00;101327.03;5101528;27;51098;-39
2022/10/08 12:23:20;;;;;;;;;21.50;18.00;;;;;32.68;100.00;101325.56;5099823;27;51475;-39
2022/10/08 12:26:07;;;;;;;;;21.00;18.00;;;;;32.69;100.00;101317.16;5099220;27;51087;-39
2022/10/08 12:28:52;;;;;;;;;19.75;16.75;;;;;32.65;100.00;101312.06;5090172;27;51137;-40
2022/10/08 12:31:40;;;;;;;;;14.25;13.50;;;;;32.59;100.00;101306.06;5097090;27;51231;-41
2022/10/08 12:34:24;;;;;;;;;16.00;12.00;;;;;32.48;100.00;101294.28;5086190;27;51157;-39
2022/10/08 12:37:33;;;;;;;;;17.25;14.00;;;;;32.33;100.00;101291.84;5096223;27;51221;-39
2022/10/08 12:40:30;;;;;;;;;10.50;8.25;;;;;32.16;100.00;101285.06;5091291;27;51336;-40
2022/10/08 12:43:33;;;;;;;;;12.00;10.75;;;;;32.09;100.00;101270.06;5096755;27;51204;-38
2022/10/08 12:46:34;;;;;;;;;11.75;11.00;;;;;32.10;100.00;101272.72;5096531;27;51131;-38